sensor_id;sensor_type;location;lat;lon;timestamp;pressure;altitude;pressure_sealevel;temperature;humidity
66880;BME280;53789;51.392;10.234;2022-12-18T00:00:16;99537.50;;;-11.55;65.73
66880;BME280;53789;51.392;10.234;2022-12-18T00:00:43;99540.16;;;-11.55;64.66
66880;BME280;53789;51.392;10.234;2022-12-18T00:01:05;99537.50;;;-11.55;65.43
66880;BME280;53789;51.392;10.234;2022-12-18T00:01:27;99540.16;;;-11.55;66.14
66880;BME280;53789;51.392;10.234;2022-12-18T00:01:48;99536.63;;;-11.55;65.60
66880;BME280;53789;51.392;10.234;2022-12-18T00:02:08;99540.16;;;-11.55;66.67
66880;BME280;53789;51.392;10.234;2022-12-18T00:02:28;99544.59;;;-11.55;65.38
66880;BME280;53789;51.392;10.234;2022-12-18T00:02:48;99541.84;;;-11.54;66.38
66880;BME280;53789;51.392;10.234;2022-12-18T00:03:09;99537.38;;;-11.53;66.71
66880;BME280;53789;51.392;10.234;2022-12-18T00:03:29;99540.84;;;-11.53;65.77
66880;BME280;53789;51.392;10.234;2022-12-18T00:03:51;99546.16;;;-11.53;64.61
66880;BME280;53789;51.392;10.234;2022-12-18T00:04:20;99554.13;;;-11.53;65.32
66880;BME280;53789;51.392;10.234;2022-12-18T00:04:41;99547.16;;;-11.54;65.07
66880;BME280;53789;51.392;10.234;2022-12-18T00:05:01;99546.44;;;-11.56;65.57
66880;BME280;53789;51.392;10.234;2022-12-18T00:05:21;99547.38;;;-11.57;64.68
66880;BME280;53789;51.392;10.234;2022-12-18T00:05:48;99548.38;;;-11.58;66.47
66880;BME280;53789;51.392;10.234;2022-12-18T00:06:09;99547.53;;;-11.58;66.32
66880;BME280;53789;51.392;10.234;2022-12-18T00:06:29;99542.22;;;-11.58;66.57
66880;BME280;53789;51.392;10.234;2022-12-18T00:06:50;99544.88;;;-11.58;65.79
66880;BME280;53789;51.392;10.234;2022-12-18T00:07:10;99550.03;;;-11.57;66.57
66880;BME280;53789;51.392;10.234;2022-12-18T00:07:30;99548.13;;;-11.55;66.50
66880;BME280;53789;51.392;10.234;2022-12-18T00:07:51;99548.13;;;-11.55;65.82
66880;BME280;53789;51.392;10.234;2022-12-18T00:08:11;99550.78;;;-11.55;66.32
66880;BME280;53789;51.392;10.234;2022-12-18T00:08:31;99548.81;;;-11.53;65.15
66880;BME280;53789;51.392;10.234;2022-12-18T00:08:52;99543.38;;;-11.51;66.08
66880;BME280;53789;51.392;10.234;2022-12-18T00:09:12;99547.84;;;-11.52;66.22
66880;BME280;53789;51.392;10.234;2022-12-18T00:09:33;99544.38;;;-11.52;65.74
66880;BME280;53789;51.392;10.234;2022-12-18T00:09:53;99543.38;;;-11.51;65.96
66880;BME280;53789;51.392;10.234;2022-12-18T00:10:13;99547.72;;;-11.50;67.04
66880;BME280;53789;51.392;10.234;2022-12-18T00:10:33;99553.84;;;-11.50;65.97
66880;BME280;53789;51.392;10.234;2022-12-18T00:10:54;99551.06;;;-11.48;66.55
66880;BME280;53789;51.392;10.234;2022-12-18T00:11:17;99546.63;;;-11.48;66.21
66880;BME280;53789;51.392;10.234;2022-12-18T00:11:38;99545.88;;;-11.50;65.03
66880;BME280;53789;51.392;10.234;2022-12-18T00:11:58;99549.53;;;-11.51;66.17
66880;BME280;53789;51.392;10.234;2022-12-18T00:12:18;99555.69;;;-11.50;65.97
66880;BME280;53789;51.392;10.234;2022-12-18T00:12:38;99549.53;;;-11.51;66.68
66880;BME280;53789;51.392;10.234;2022-12-18T00:12:59;99549.41;;;-11.49;66.03
66880;BME280;53789;51.392;10.234;2022-12-18T00:13:19;99556.50;;;-11.50;66.36
66880;BME280;53789;51.392;10.234;2022-12-18T00:13:40;99555.53;;;-11.49;65.93
66880;BME280;53789;51.392;10.234;2022-12-18T00:14:00;99553.72;;;-11.48;65.74
66880;BME280;53789;51.392;10.234;2022-12-18T00:14:21;99547.59;;;-11.49;66.13
66880;BME280;53789;51.392;10.234;2022-12-18T00:14:41;99556.38;;;-11.48;65.16
66880;BME280;53789;51.392;10.234;2022-12-18T00:15:03;99553.72;;;-11.48;66.07
66880;BME280;53789;51.392;10.234;2022-12-18T00:15:23;99561.56;;;-11.47;66.08
66880;BME280;53789;51.392;10.234;2022-12-18T00:15:43;99559.03;;;-11.48;65.48
66880;BME280;53789;51.392;10.234;2022-12-18T00:16:06;99559.03;;;-11.48;65.47
66880;BME280;53789;51.392;10.234;2022-12-18T00:16:28;99558.91;;;-11.47;66.52
66880;BME280;53789;51.392;10.234;2022-12-18T00:16:49;99553.59;;;-11.47;65.97
66880;BME280;53789;51.392;10.234;2022-12-18T00:17:09;99558.06;;;-11.47;66.41
66880;BME280;53789;51.392;10.234;2022-12-18T00:17:29;99560.72;;;-11.47;65.33
66880;BME280;53789;51.392;10.234;2022-12-18T00:17:50;99554.31;;;-11.45;65.17
66880;BME280;53789;51.392;10.234;2022-12-18T00:18:10;99549.97;;;-11.46;66.31
66880;BME280;53789;51.392;10.234;2022-12-18T00:18:31;99556.09;;;-11.45;65.78
66880;BME280;53789;51.392;10.234;2022-12-18T00:18:56;99562.28;;;-11.45;65.62
66880;BME280;53789;51.392;10.234;2022-12-18T00:19:17;99559.63;;;-11.45;65.08
66880;BME280;53789;51.392;10.234;2022-12-18T00:19:37;99558.75;;;-11.45;65.66
66880;BME280;53789;51.392;10.234;2022-12-18T00:19:57;99553.44;;;-11.45;65.93
66880;BME280;53789;51.392;10.234;2022-12-18T00:20:17;99561.41;;;-11.45;65.54
66880;BME280;53789;51.392;10.234;2022-12-18T00:20:39;99562.28;;;-11.45;64.98
66880;BME280;53789;51.392;10.234;2022-12-18T00:21:04;99559.63;;;-11.45;65.16
66880;BME280;53789;51.392;10.234;2022-12-18T00:21:25;99560.59;;;-11.46;65.08
66880;BME280;53789;51.392;10.234;2022-12-18T00:21:46;99566.72;;;-11.45;65.94
66880;BME280;53789;51.392;10.234;2022-12-18T00:22:06;99563.13;;;-11.44;65.64
66880;BME280;53789;51.392;10.234;2022-12-18T00:22:26;99557.81;;;-11.44;66.11
66880;BME280;53789;51.392;10.234;2022-12-18T00:22:47;99559.63;;;-11.45;65.35
66880;BME280;53789;51.392;10.234;2022-12-18T00:23:07;99564.81;;;-11.43;65.03
66880;BME280;53789;51.392;10.234;2022-12-18T00:23:28;99560.47;;;-11.44;65.74
66880;BME280;53789;51.392;10.234;2022-12-18T00:23:49;99554.31;;;-11.45;66.42
66880;BME280;53789;51.392;10.234;2022-12-18T00:24:11;99560.59;;;-11.46;65.90
66880;BME280;53789;51.392;10.234;2022-12-18T00:24:31;99559.63;;;-11.45;66.82
66880;BME280;53789;51.392;10.234;2022-12-18T00:24:52;99556.97;;;-11.45;66.78
66880;BME280;53789;51.392;10.234;2022-12-18T00:25:12;99557.81;;;-11.44;66.67
66880;BME280;53789;51.392;10.234;2022-12-18T00:25:34;99558.63;;;-11.44;66.39
66880;BME280;53789;51.392;10.234;2022-12-18T00:25:54;99557.81;;;-11.44;65.40
66880;BME280;53789;51.392;10.234;2022-12-18T00:26:30;99557.66;;;-11.43;66.37
66880;BME280;53789;51.392;10.234;2022-12-18T00:26:50;99554.31;;;-11.45;66.32
66880;BME280;53789;51.392;10.234;2022-12-18T00:27:11;99557.81;;;-11.44;66.11
66880;BME280;53789;51.392;10.234;2022-12-18T00:27:31;99556.84;;;-11.43;65.97
66880;BME280;53789;51.392;10.234;2022-12-18T00:27:51;99557.81;;;-11.44;66.52
66880;BME280;53789;51.392;10.234;2022-12-18T00:28:11;99557.81;;;-11.44;66.98
66880;BME280;53789;51.392;10.234;2022-12-18T00:28:32;99560.47;;;-11.44;66.72
66880;BME280;53789;51.392;10.234;2022-12-18T00:28:53;99555.97;;;-11.44;66.19
66880;BME280;53789;51.392;10.234;2022-12-18T00:29:13;99561.28;;;-11.44;67.02
66880;BME280;53789;51.392;10.234;2022-12-18T00:29:34;99557.66;;;-11.43;66.21
66880;BME280;53789;51.392;10.234;2022-12-18T00:29:54;99554.31;;;-11.45;66.39
66880;BME280;53789;51.392;10.234;2022-12-18T00:30:14;99561.28;;;-11.44;66.33
66880;BME280;53789;51.392;10.234;2022-12-18T00:30:35;99558.63;;;-11.44;66.25
66880;BME280;53789;51.392;10.234;2022-12-18T00:31:07;99554.19;;;-11.43;66.22
66880;BME280;53789;51.392;10.234;2022-12-18T00:31:28;99555.16;;;-11.44;66.33
66880;BME280;53789;51.392;10.234;2022-12-18T00:31:48;99556.84;;;-11.43;66.55
66880;BME280;53789;51.392;10.234;2022-12-18T00:32:08;99553.31;;;-11.44;66.23
66880;BME280;53789;51.392;10.234;2022-12-18T00:32:29;99556.97;;;-11.45;65.52
66880;BME280;53789;51.392;10.234;2022-12-18T00:32:49;99555.41;;;-11.47;66.00
66880;BME280;53789;51.392;10.234;2022-12-18T00:33:09;99560.72;;;-11.47;66.37
66880;BME280;53789;51.392;10.234;2022-12-18T00:33:30;99557.94;;;-11.46;67.20
66880;BME280;53789;51.392;10.234;2022-12-18T00:33:50;99564.06;;;-11.45;66.96
66880;BME280;53789;51.392;10.234;2022-12-18T00:34:12;99562.28;;;-11.45;66.41
66880;BME280;53789;51.392;10.234;2022-12-18T00:34:32;99561.41;;;-11.45;66.29
66880;BME280;53789;51.392;10.234;2022-12-18T00:34:53;99556.97;;;-11.45;66.21
66880;BME280;53789;51.392;10.234;2022-12-18T00:35:13;99564.06;;;-11.45;65.88
66880;BME280;53789;51.392;10.234;2022-12-18T00:35:33;99562.28;;;-11.45;66.70
66880;BME280;53789;51.392;10.234;2022-12-18T00:35:53;99564.94;;;-11.45;67.22
66880;BME280;53789;51.392;10.234;2022-12-18T00:36:16;99564.94;;;-11.45;66.27
66880;BME280;53789;51.392;10.234;2022-12-18T00:36:37;99563.94;;;-11.44;66.23
66880;BME280;53789;51.392;10.234;2022-12-18T00:36:57;99556.97;;;-11.45;65.59
66880;BME280;53789;51.392;10.234;2022-12-18T00:37:18;99564.06;;;-11.45;65.41
66880;BME280;53789;51.392;10.234;2022-12-18T00:37:38;99565.22;;;-11.48;66.38
66880;BME280;53789;51.392;10.234;2022-12-18T00:37:58;99565.22;;;-11.48;66.24
66880;BME280;53789;51.392;10.234;2022-12-18T00:38:18;99559.91;;;-11.48;66.86
66880;BME280;53789;51.392;10.234;2022-12-18T00:38:40;99569.53;;;-11.47;66.26
66880;BME280;53789;51.392;10.234;2022-12-18T00:39:03;99564.22;;;-11.47;65.64
66880;BME280;53789;51.392;10.234;2022-12-18T00:39:23;99568.56;;;-11.46;66.89
66880;BME280;53789;51.392;10.234;2022-12-18T00:39:43;99563.25;;;-11.46;65.72
66880;BME280;53789;51.392;10.234;2022-12-18T00:40:04;99559.75;;;-11.46;65.17
66880;BME280;53789;51.392;10.234;2022-12-18T00:40:24;99570.25;;;-11.45;66.04
66880;BME280;53789;51.392;10.234;2022-12-18T00:40:45;99567.59;;;-11.45;65.71
66880;BME280;53789;51.392;10.234;2022-12-18T00:41:06;99565.78;;;-11.44;67.19
66880;BME280;53789;51.392;10.234;2022-12-18T00:41:27;99567.59;;;-11.45;66.58
66880;BME280;53789;51.392;10.234;2022-12-18T00:41:48;99566.47;;;-11.42;65.60
66880;BME280;53789;51.392;10.234;2022-12-18T00:42:10;99562.97;;;-11.43;65.10
66880;BME280;53789;51.392;10.234;2022-12-18T00:42:30;99562.00;;;-11.42;65.57
66880;BME280;53789;51.392;10.234;2022-12-18T00:42:50;99561.16;;;-11.42;65.59
66880;BME280;53789;51.392;10.234;2022-12-18T00:43:11;99561.16;;;-11.42;67.25
66880;BME280;53789;51.392;10.234;2022-12-18T00:43:31;99558.50;;;-11.42;66.34
66880;BME280;53789;51.392;10.234;2022-12-18T00:43:51;99565.63;;;-11.43;65.45
66880;BME280;53789;51.392;10.234;2022-12-18T00:44:14;99573.47;;;-11.41;65.79
66880;BME280;53789;51.392;10.234;2022-12-18T00:44:35;99562.00;;;-11.42;66.48
66880;BME280;53789;51.392;10.234;2022-12-18T00:44:55;99568.16;;;-11.41;65.75
66880;BME280;53789;51.392;10.234;2022-12-18T00:45:15;99562.00;;;-11.42;65.08
66880;BME280;53789;51.392;10.234;2022-12-18T00:45:36;99561.41;;;-11.45;65.34
66880;BME280;53789;51.392;10.234;2022-12-18T00:45:56;99561.56;;;-11.47;65.07
66880;BME280;53789;51.392;10.234;2022-12-18T00:46:17;99562.56;;;-11.48;64.99
66880;BME280;53789;51.392;10.234;2022-12-18T00:46:37;99562.56;;;-11.48;65.91
66880;BME280;53789;51.392;10.234;2022-12-18T00:46:58;99558.06;;;-11.47;64.81
66880;BME280;53789;51.392;10.234;2022-12-18T00:47:18;99566.03;;;-11.47;65.72
66880;BME280;53789;51.392;10.234;2022-12-18T00:47:38;99562.56;;;-11.48;64.58
66880;BME280;53789;51.392;10.234;2022-12-18T00:47:59;99557.25;;;-11.48;65.53
66880;BME280;53789;51.392;10.234;2022-12-18T00:48:19;99555.53;;;-11.49;65.21
66880;BME280;53789;51.392;10.234;2022-12-18T00:48:40;99559.16;;;-11.50;65.30
66880;BME280;53789;51.392;10.234;2022-12-18T00:49:00;99559.44;;;-11.53;66.17
66880;BME280;53789;51.392;10.234;2022-12-18T00:49:20;99556.91;;;-11.54;64.82
66880;BME280;53789;51.392;10.234;2022-12-18T00:49:41;99555.94;;;-11.53;64.53
66880;BME280;53789;51.392;10.234;2022-12-18T00:50:01;99563.91;;;-11.53;66.38
66880;BME280;53789;51.392;10.234;2022-12-18T00:50:24;99564.75;;;-11.53;65.81
66880;BME280;53789;51.392;10.234;2022-12-18T00:50:44;99563.09;;;-11.54;66.19
66880;BME280;53789;51.392;10.234;2022-12-18T00:51:05;99564.03;;;-11.55;65.16
66880;BME280;53789;51.392;10.234;2022-12-18T00:51:26;99565.84;;;-11.55;64.88
66880;BME280;53789;51.392;10.234;2022-12-18T00:51:47;99570.31;;;-11.56;65.49
66880;BME280;53789;51.392;10.234;2022-12-18T00:52:07;99565.16;;;-11.57;65.33
66880;BME280;53789;51.392;10.234;2022-12-18T00:52:28;99565.16;;;-11.57;66.34
66880;BME280;53789;51.392;10.234;2022-12-18T00:52:48;99564.44;;;-11.60;66.59
66880;BME280;53789;51.392;10.234;2022-12-18T00:53:09;99564.59;;;-11.61;65.20
66880;BME280;53789;51.392;10.234;2022-12-18T00:53:30;99574.34;;;-11.62;65.56
66880;BME280;53789;51.392;10.234;2022-12-18T00:53:50;99567.50;;;-11.64;66.27
66880;BME280;53789;51.392;10.234;2022-12-18T00:54:10;99573.63;;;-11.64;65.71
66880;BME280;53789;51.392;10.234;2022-12-18T00:54:31;99567.50;;;-11.64;65.49
66880;BME280;53789;51.392;10.234;2022-12-18T00:54:51;99567.50;;;-11.64;65.71
66880;BME280;53789;51.392;10.234;2022-12-18T00:55:12;99569.28;;;-11.65;65.67
66880;BME280;53789;51.392;10.234;2022-12-18T00:55:33;99563.84;;;-11.63;66.19
66880;BME280;53789;51.392;10.234;2022-12-18T00:55:53;99569.28;;;-11.65;66.75
66880;BME280;53789;51.392;10.234;2022-12-18T00:56:13;99567.63;;;-11.66;66.71
66880;BME280;53789;51.392;10.234;2022-12-18T00:56:36;99575.47;;;-11.64;67.64
66880;BME280;53789;51.392;10.234;2022-12-18T00:56:56;99567.38;;;-11.63;67.19
66880;BME280;53789;51.392;10.234;2022-12-18T00:57:17;99575.19;;;-11.61;66.53
66880;BME280;53789;51.392;10.234;2022-12-18T00:57:37;99569.75;;;-11.60;66.21
66880;BME280;53789;51.392;10.234;2022-12-18T00:57:57;99571.41;;;-11.58;66.71
66880;BME280;53789;51.392;10.234;2022-12-18T00:58:18;99574.94;;;-11.58;66.15
66880;BME280;53789;51.392;10.234;2022-12-18T00:58:38;99575.75;;;-11.57;66.02
66880;BME280;53789;51.392;10.234;2022-12-18T00:58:58;99574.06;;;-11.58;66.60
66880;BME280;53789;51.392;10.234;2022-12-18T00:59:19;99578.41;;;-11.57;65.48
66880;BME280;53789;51.392;10.234;2022-12-18T00:59:39;99572.41;;;-11.60;66.31
66880;BME280;53789;51.392;10.234;2022-12-18T00:59:59;99569.75;;;-11.60;66.22
66880;BME280;53789;51.392;10.234;2022-12-18T01:00:20;99576.72;;;-11.58;66.22
66880;BME280;53789;51.392;10.234;2022-12-18T01:00:41;99569.75;;;-11.60;66.51
66880;BME280;53789;51.392;10.234;2022-12-18T01:01:04;99574.34;;;-11.62;66.14
66880;BME280;53789;51.392;10.234;2022-12-18T01:01:24;99575.06;;;-11.60;66.52
66880;BME280;53789;51.392;10.234;2022-12-18T01:01:46;99577.59;;;-11.58;66.34
66880;BME280;53789;51.392;10.234;2022-12-18T01:02:06;99576.59;;;-11.57;66.96
66880;BME280;53789;51.392;10.234;2022-12-18T01:02:27;99577.59;;;-11.58;67.13
66880;BME280;53789;51.392;10.234;2022-12-18T01:02:47;99577.59;;;-11.58;66.42
66880;BME280;53789;51.392;10.234;2022-12-18T01:03:09;99581.06;;;-11.57;65.30
66880;BME280;53789;51.392;10.234;2022-12-18T01:03:32;99575.91;;;-11.59;65.26
66880;BME280;53789;51.392;10.234;2022-12-18T01:03:53;99578.69;;;-11.61;66.33
66880;BME280;53789;51.392;10.234;2022-12-18T01:04:14;99576.03;;;-11.61;67.09
66880;BME280;53789;51.392;10.234;2022-12-18T01:04:35;99576.88;;;-11.60;67.76
66880;BME280;53789;51.392;10.234;2022-12-18T01:04:55;99569.88;;;-11.61;66.95
66880;BME280;53789;51.392;10.234;2022-12-18T01:05:15;99571.69;;;-11.62;67.47
66880;BME280;53789;51.392;10.234;2022-12-18T01:05:39;99581.22;;;-11.59;67.44
66880;BME280;53789;51.392;10.234;2022-12-18T01:06:06;99580.25;;;-11.58;67.34
66880;BME280;53789;51.392;10.234;2022-12-18T01:06:26;99574.81;;;-11.56;66.48
66880;BME280;53789;51.392;10.234;2022-12-18T01:06:48;99574.81;;;-11.56;67.32
66880;BME280;53789;51.392;10.234;2022-12-18T01:07:08;99566.69;;;-11.55;66.66
66880;BME280;53789;51.392;10.234;2022-12-18T01:07:28;99573.81;;;-11.55;67.42
66880;BME280;53789;51.392;10.234;2022-12-18T01:07:49;99577.19;;;-11.53;65.96
66880;BME280;53789;51.392;10.234;2022-12-18T01:08:09;99578.88;;;-11.52;65.94
66880;BME280;53789;51.392;10.234;2022-12-18T01:08:29;99582.38;;;-11.52;66.52
66880;BME280;53789;51.392;10.234;2022-12-18T01:08:49;99579.59;;;-11.50;67.20
66880;BME280;53789;51.392;10.234;2022-12-18T01:09:10;99576.09;;;-11.51;67.39
66880;BME280;53789;51.392;10.234;2022-12-18T01:09:30;99579.59;;;-11.50;66.39
66880;BME280;53789;51.392;10.234;2022-12-18T01:09:50;99579.59;;;-11.50;67.04
66880;BME280;53789;51.392;10.234;2022-12-18T01:10:12;99579.72;;;-11.52;66.62
66880;BME280;53789;51.392;10.234;2022-12-18T01:10:33;99576.38;;;-11.54;65.90
66880;BME280;53789;51.392;10.234;2022-12-18T01:10:53;99578.16;;;-11.54;66.81
66880;BME280;53789;51.392;10.234;2022-12-18T01:11:17;99578.03;;;-11.53;65.90
66880;BME280;53789;51.392;10.234;2022-12-18T01:11:38;99579.84;;;-11.53;65.46
66880;BME280;53789;51.392;10.234;2022-12-18T01:11:58;99587.09;;;-11.55;65.65
66880;BME280;53789;51.392;10.234;2022-12-18T01:12:19;99585.44;;;-11.56;65.90
66880;BME280;53789;51.392;10.234;2022-12-18T01:12:39;99582.63;;;-11.55;66.27
66880;BME280;53789;51.392;10.234;2022-12-18T01:12:59;99584.56;;;-11.57;65.55
66880;BME280;53789;51.392;10.234;2022-12-18T01:13:20;99581.91;;;-11.57;66.14
66880;BME280;53789;51.392;10.234;2022-12-18T01:13:40;99590.72;;;-11.56;65.96
66880;BME280;53789;51.392;10.234;2022-12-18T01:14:01;99575.75;;;-11.57;66.32
66880;BME280;53789;51.392;10.234;2022-12-18T01:14:21;99584.56;;;-11.57;65.91
66880;BME280;53789;51.392;10.234;2022-12-18T01:14:41;99589.88;;;-11.57;66.64
66880;BME280;53789;51.392;10.234;2022-12-18T01:15:02;99581.06;;;-11.57;66.23
66880;BME280;53789;51.392;10.234;2022-12-18T01:15:23;99586.53;;;-11.59;66.70
66880;BME280;53789;51.392;10.234;2022-12-18T01:15:50;99577.72;;;-11.60;65.51
66880;BME280;53789;51.392;10.234;2022-12-18T01:16:12;99583.88;;;-11.59;65.92
66880;BME280;53789;51.392;10.234;2022-12-18T01:16:33;99584.81;;;-11.60;67.37
66880;BME280;53789;51.392;10.234;2022-12-18T01:16:53;99584.69;;;-11.58;66.33
66880;BME280;53789;51.392;10.234;2022-12-18T01:17:13;99586.53;;;-11.59;65.74
66880;BME280;53789;51.392;10.234;2022-12-18T01:17:33;99586.78;;;-11.62;65.16
66880;BME280;53789;51.392;10.234;2022-12-18T01:17:54;99583.44;;;-11.64;66.55
66880;BME280;53789;51.392;10.234;2022-12-18T01:18:14;99576.56;;;-11.67;67.33
66880;BME280;53789;51.392;10.234;2022-12-18T01:18:35;99582.69;;;-11.66;65.57
66880;BME280;53789;51.392;10.234;2022-12-18T01:18:55;99576.69;;;-11.68;66.32
66880;BME280;53789;51.392;10.234;2022-12-18T01:19:15;99577.66;;;-11.69;66.58
66880;BME280;53789;51.392;10.234;2022-12-18T01:19:35;99575.00;;;-11.69;67.47
66880;BME280;53789;51.392;10.234;2022-12-18T01:19:56;99580.31;;;-11.69;66.71
66880;BME280;53789;51.392;10.234;2022-12-18T01:20:16;99576.69;;;-11.68;66.74
66880;BME280;53789;51.392;10.234;2022-12-18T01:20:37;99577.53;;;-11.68;66.26
66880;BME280;53789;51.392;10.234;2022-12-18T01:20:58;99575.84;;;-11.69;67.57
66880;BME280;53789;51.392;10.234;2022-12-18T01:21:18;99576.81;;;-11.70;67.22
66880;BME280;53789;51.392;10.234;2022-12-18T01:21:38;99578.50;;;-11.69;67.17
66880;BME280;53789;51.392;10.234;2022-12-18T01:21:59;99573.19;;;-11.69;67.38
66880;BME280;53789;51.392;10.234;2022-12-18T01:22:19;99580.31;;;-11.69;66.55
66880;BME280;53789;51.392;10.234;2022-12-18T01:22:39;99581.28;;;-11.70;65.46
66880;BME280;53789;51.392;10.234;2022-12-18T01:23:00;99579.47;;;-11.70;65.20
66880;BME280;53789;51.392;10.234;2022-12-18T01:23:20;99576.97;;;-11.71;66.43
66880;BME280;53789;51.392;10.234;2022-12-18T01:23:40;99586.72;;;-11.72;67.26
66880;BME280;53789;51.392;10.234;2022-12-18T01:24:01;99585.06;;;-11.73;66.37
66880;BME280;53789;51.392;10.234;2022-12-18T01:24:21;99584.91;;;-11.71;66.11
66880;BME280;53789;51.392;10.234;2022-12-18T01:24:42;99582.13;;;-11.70;67.84
66880;BME280;53789;51.392;10.234;2022-12-18T01:25:03;99582.97;;;-11.69;66.84
66880;BME280;53789;51.392;10.234;2022-12-18T01:25:24;99579.47;;;-11.70;66.50
66880;BME280;53789;51.392;10.234;2022-12-18T01:25:44;99585.50;;;-11.68;66.36
66880;BME280;53789;51.392;10.234;2022-12-18T01:26:13;99583.66;;;-11.67;66.98
66880;BME280;53789;51.392;10.234;2022-12-18T01:26:34;99583.56;;;-11.66;66.45
66880;BME280;53789;51.392;10.234;2022-12-18T01:26:54;99586.22;;;-11.66;65.83
66880;BME280;53789;51.392;10.234;2022-12-18T01:27:14;99582.69;;;-11.66;66.27
66880;BME280;53789;51.392;10.234;2022-12-18T01:27:35;99581.88;;;-11.67;65.94
66880;BME280;53789;51.392;10.234;2022-12-18T01:27:55;99585.34;;;-11.66;66.87
66880;BME280;53789;51.392;10.234;2022-12-18T01:28:15;99583.66;;;-11.67;66.92
66880;BME280;53789;51.392;10.234;2022-12-18T01:28:36;99591.63;;;-11.67;66.42
66880;BME280;53789;51.392;10.234;2022-12-18T01:28:57;99581.00;;;-11.67;67.04
66880;BME280;53789;51.392;10.234;2022-12-18T01:29:18;99583.56;;;-11.66;67.08
66880;BME280;53789;51.392;10.234;2022-12-18T01:29:38;99581.88;;;-11.67;67.40
66880;BME280;53789;51.392;10.234;2022-12-18T01:29:58;99585.94;;;-11.63;67.29
66880;BME280;53789;51.392;10.234;2022-12-18T01:30:19;99584.97;;;-11.62;66.66
66880;BME280;53789;51.392;10.234;2022-12-18T01:30:39;99579.66;;;-11.62;67.85
66880;BME280;53789;51.392;10.234;2022-12-18T01:31:18;99585.56;;;-11.58;67.51
66880;BME280;53789;51.392;10.234;2022-12-18T01:31:38;99586.25;;;-11.56;66.14
66880;BME280;53789;51.392;10.234;2022-12-18T01:31:58;99587.22;;;-11.57;66.83
66880;BME280;53789;51.392;10.234;2022-12-18T01:32:19;99579.25;;;-11.57;66.79
66880;BME280;53789;51.392;10.234;2022-12-18T01:32:40;99589.03;;;-11.57;66.19
66880;BME280;53789;51.392;10.234;2022-12-18T01:33:00;99583.72;;;-11.57;66.40
66880;BME280;53789;51.392;10.234;2022-12-18T01:33:20;99589.03;;;-11.57;67.40
66880;BME280;53789;51.392;10.234;2022-12-18T01:33:41;99582.03;;;-11.58;66.20
66880;BME280;53789;51.392;10.234;2022-12-18T01:34:03;99582.91;;;-11.58;65.91
66880;BME280;53789;51.392;10.234;2022-12-18T01:34:24;99587.34;;;-11.58;65.45
66880;BME280;53789;51.392;10.234;2022-12-18T01:34:44;99585.69;;;-11.60;66.38
66880;BME280;53789;51.392;10.234;2022-12-18T01:35:05;99584.69;;;-11.58;66.99
66880;BME280;53789;51.392;10.234;2022-12-18T01:35:25;99592.66;;;-11.58;66.53
66880;BME280;53789;51.392;10.234;2022-12-18T01:35:46;99593.66;;;-11.60;66.98
66880;BME280;53789;51.392;10.234;2022-12-18T01:36:06;99587.47;;;-11.60;65.89
66880;BME280;53789;51.392;10.234;2022-12-18T01:36:30;99586.66;;;-11.61;65.99
66880;BME280;53789;51.392;10.234;2022-12-18T01:36:50;99590.13;;;-11.60;67.89
66880;BME280;53789;51.392;10.234;2022-12-18T01:37:10;99588.47;;;-11.61;65.83
66880;BME280;53789;51.392;10.234;2022-12-18T01:37:31;99587.63;;;-11.62;66.90
66880;BME280;53789;51.392;10.234;2022-12-18T01:37:54;99586.91;;;-11.64;66.95
66880;BME280;53789;51.392;10.234;2022-12-18T01:38:14;99591.41;;;-11.64;67.41
66880;BME280;53789;51.392;10.234;2022-12-18T01:38:35;99582.44;;;-11.63;66.11
66880;BME280;53789;51.392;10.234;2022-12-18T01:38:56;99585.09;;;-11.63;66.10
66880;BME280;53789;51.392;10.234;2022-12-18T01:39:17;99583.31;;;-11.63;65.97
66880;BME280;53789;51.392;10.234;2022-12-18T01:39:37;99585.94;;;-11.63;67.43
66880;BME280;53789;51.392;10.234;2022-12-18T01:39:58;99588.59;;;-11.63;67.23
66880;BME280;53789;51.392;10.234;2022-12-18T01:40:18;99584.13;;;-11.62;67.29
66880;BME280;53789;51.392;10.234;2022-12-18T01:40:38;99581.34;;;-11.61;67.70
66880;BME280;53789;51.392;10.234;2022-12-18T01:41:00;99576.88;;;-11.60;67.42
66880;BME280;53789;51.392;10.234;2022-12-18T01:41:24;99589.31;;;-11.61;67.06
66880;BME280;53789;51.392;10.234;2022-12-18T01:41:46;99589.03;;;-11.57;66.51
66880;BME280;53789;51.392;10.234;2022-12-18T01:42:12;99585.56;;;-11.58;66.85
66880;BME280;53789;51.392;10.234;2022-12-18T01:42:33;99583.72;;;-11.57;66.35
66880;BME280;53789;51.392;10.234;2022-12-18T01:42:54;99585.56;;;-11.58;66.30
66880;BME280;53789;51.392;10.234;2022-12-18T01:43:14;99590.88;;;-11.58;66.67
66880;BME280;53789;51.392;10.234;2022-12-18T01:43:49;99585.28;;;-11.55;66.43
66880;BME280;53789;51.392;10.234;2022-12-18T01:45:33;99592.16;;;-11.52;66.76
66880;BME280;53789;51.392;10.234;2022-12-18T01:45:53;99582.38;;;-11.52;67.80
66880;BME280;53789;51.392;10.234;2022-12-18T01:46:15;99590.34;;;-11.52;67.36
66880;BME280;53789;51.392;10.234;2022-12-18T01:46:36;99586.00;;;-11.53;67.36
66880;BME280;53789;51.392;10.234;2022-12-18T01:46:56;99589.50;;;-11.52;67.55
66880;BME280;53789;51.392;10.234;2022-12-18T01:47:47;99587.69;;;-11.52;66.97
66880;BME280;53789;51.392;10.234;2022-12-18T01:48:09;99585.03;;;-11.52;67.84
66880;BME280;53789;51.392;10.234;2022-12-18T01:48:29;99584.06;;;-11.51;67.97
66880;BME280;53789;51.392;10.234;2022-12-18T01:48:57;99583.06;;;-11.50;66.97
66880;BME280;53789;51.392;10.234;2022-12-18T01:49:17;99589.09;;;-11.48;66.46
66880;BME280;53789;51.392;10.234;2022-12-18T01:49:38;99588.97;;;-11.46;67.71
66880;BME280;53789;51.392;10.234;2022-12-18T01:50:09;99591.63;;;-11.46;67.56
66880;BME280;53789;51.392;10.234;2022-12-18T01:50:38;99585.31;;;-11.45;66.68
66880;BME280;53789;51.392;10.234;2022-12-18T01:50:59;99599.47;;;-11.45;67.94